createdAt,value
2018-10-17T00:00:40.214Z,7.60
2018-10-17T00:03:09.404Z,7.60
2018-10-17T00:05:39.064Z,7.70
2018-10-17T00:08:08.708Z,7.70
2018-10-17T00:10:38.102Z,7.70
2018-10-17T00:13:07.487Z,7.60
2018-10-17T00:15:36.975Z,7.60
2018-10-17T00:18:06.022Z,7.70
2018-10-17T00:20:35.585Z,7.70
2018-10-17T00:23:05.421Z,7.70
2018-10-17T00:25:34.437Z,7.60
2018-10-17T00:28:03.655Z,7.70
2018-10-17T00:30:32.979Z,7.70
2018-10-17T00:33:02.464Z,7.70
2018-10-17T00:35:31.848Z,7.80
2018-10-17T00:38:00.932Z,7.80
2018-10-17T00:40:30.472Z,7.70
2018-10-17T00:42:59.727Z,7.60
2018-10-17T00:45:29.132Z,7.60
2018-10-17T00:47:59.224Z,7.70
2018-10-17T00:50:28.530Z,7.70
2018-10-17T00:52:58.138Z,7.70
2018-10-17T00:55:27.551Z,7.60
2018-10-17T00:57:57.124Z,7.60
2018-10-17T01:00:27.502Z,7.60
2018-10-17T01:02:56.676Z,7.70
2018-10-17T01:05:26.045Z,7.70
2018-10-17T01:07:55.364Z,7.60
2018-10-17T01:10:24.634Z,7.70
2018-10-17T01:12:54.038Z,7.60
2018-10-17T01:15:23.408Z,7.50
2018-10-17T01:17:53.050Z,7.50
2018-10-17T01:20:22.392Z,7.50
2018-10-17T01:22:52.519Z,7.40
2018-10-17T01:25:21.866Z,7.40
2018-10-17T01:27:51.377Z,7.60
2018-10-17T01:30:20.743Z,7.60
2018-10-17T01:32:50.119Z,7.60
2018-10-17T01:35:19.554Z,7.50
2018-10-17T01:37:48.668Z,7.50
2018-10-17T01:40:18.070Z,7.50
2018-10-17T01:42:47.269Z,7.50
2018-10-17T01:45:16.704Z,7.50
2018-10-17T01:47:45.902Z,7.50
2018-10-17T01:50:15.263Z,7.50
2018-10-17T01:52:44.731Z,7.40
2018-10-17T01:55:14.355Z,7.50
2018-10-17T01:57:43.755Z,7.40
2018-10-17T02:00:13.183Z,7.50
2018-10-17T02:02:42.930Z,7.40
2018-10-17T02:05:12.346Z,7.40
2018-10-17T02:07:41.656Z,7.30
2018-10-17T02:10:11.243Z,7.40
2018-10-17T02:12:40.745Z,7.40
2018-10-17T02:15:09.846Z,7.20
2018-10-17T02:17:39.213Z,7.20
2018-10-17T02:20:08.428Z,7.20
2018-10-17T02:22:37.821Z,7.10
2018-10-17T02:25:07.435Z,7.10
2018-10-17T02:27:36.604Z,7.00
2018-10-17T02:30:06.036Z,7.00
2018-10-17T02:32:35.261Z,6.90
2018-10-17T02:35:10.136Z,6.70
2018-10-17T02:37:40.391Z,6.60
2018-10-17T02:40:09.629Z,6.60
2018-10-17T02:42:39.129Z,6.70
2018-10-17T02:45:09.239Z,6.70
2018-10-17T02:47:38.479Z,6.60
2018-10-17T02:50:08.447Z,6.70
2018-10-17T02:52:39.018Z,6.60
2018-10-17T02:55:09.011Z,6.60
2018-10-17T02:57:38.732Z,6.50
2018-10-17T03:00:09.301Z,6.50
2018-10-17T03:02:39.994Z,6.40
2018-10-17T03:05:08.885Z,6.30
2018-10-17T03:07:38.105Z,6.30
2018-10-17T03:10:07.304Z,6.40
2018-10-17T03:12:36.469Z,6.30
2018-10-17T03:15:06.948Z,6.20
2018-10-17T03:17:36.294Z,6.10
2018-10-17T03:20:06.569Z,6.10
2018-10-17T03:22:35.997Z,6.00
2018-10-17T03:25:05.797Z,6.10
2018-10-17T03:27:35.121Z,6.20
2018-10-17T03:30:04.688Z,6.40
2018-10-17T03:32:33.944Z,6.30
2018-10-17T03:35:03.442Z,6.40
2018-10-17T03:37:32.917Z,6.50
2018-10-17T03:40:02.386Z,6.40
2018-10-17T03:42:32.502Z,6.40
2018-10-17T03:45:02.122Z,6.50
2018-10-17T03:47:31.430Z,6.50
2018-10-17T03:50:00.537Z,6.60
2018-10-17T03:52:29.997Z,6.60
2018-10-17T03:54:59.174Z,6.50
2018-10-17T03:57:28.563Z,6.30
2018-10-17T03:59:57.854Z,6.30
2018-10-17T04:02:27.343Z,6.40
2018-10-17T04:04:56.521Z,6.40
2018-10-17T04:07:26.160Z,6.30
2018-10-17T04:09:55.266Z,6.30
2018-10-17T04:12:24.477Z,6.20
2018-10-17T04:14:53.839Z,6.10
2018-10-17T04:17:23.091Z,6.20
2018-10-17T04:19:52.540Z,6.10
2018-10-17T04:22:21.862Z,5.90
2018-10-17T04:24:51.193Z,6.00
2018-10-17T04:27:20.376Z,6.20
2018-10-17T04:29:49.736Z,6.20
2018-10-17T04:32:19.047Z,6.20
2018-10-17T04:34:48.460Z,6.20
2018-10-17T04:37:17.904Z,6.10
2018-10-17T04:39:46.998Z,6.10
2018-10-17T04:42:16.155Z,6.00
2018-10-17T04:44:45.981Z,6.10
2018-10-17T04:47:15.476Z,6.10
2018-10-17T04:49:44.672Z,6.10
2018-10-17T04:52:14.217Z,6.10
2018-10-17T04:54:43.910Z,6.00
2018-10-17T04:57:13.645Z,6.10
2018-10-17T04:59:43.173Z,5.90
2018-10-17T05:02:12.612Z,5.90
2018-10-17T05:04:42.013Z,6.00
2018-10-17T05:07:11.388Z,6.00
2018-10-17T05:09:40.752Z,6.00
2018-10-17T05:12:10.211Z,6.00
2018-10-17T05:14:39.425Z,6.00
2018-10-17T05:17:08.829Z,5.90
2018-10-17T05:19:38.191Z,5.90
2018-10-17T05:22:07.642Z,5.90
2018-10-17T05:24:36.888Z,6.00
2018-10-17T05:27:06.427Z,6.10
2018-10-17T05:29:35.603Z,6.10
2018-10-17T05:32:04.788Z,6.00
2018-10-17T05:34:34.046Z,6.00
2018-10-17T05:37:03.501Z,6.10
2018-10-17T05:39:33.276Z,6.10
2018-10-17T05:42:02.703Z,6.20
2018-10-17T05:44:32.414Z,6.20
2018-10-17T05:47:01.724Z,6.20
2018-10-17T05:49:32.084Z,6.20
2018-10-17T05:52:01.342Z,6.10
2018-10-17T05:54:30.454Z,6.20
2018-10-17T05:56:59.982Z,6.20
2018-10-17T05:59:29.846Z,6.20
2018-10-17T06:02:00.215Z,6.20
2018-10-17T06:04:29.716Z,6.20
2018-10-17T06:06:59.370Z,6.30
2018-10-17T06:09:28.657Z,6.30
2018-10-17T06:11:57.709Z,6.40
2018-10-17T06:14:27.082Z,6.40
2018-10-17T06:16:56.557Z,6.40
2018-10-17T06:19:25.785Z,6.50
2018-10-17T06:21:55.037Z,6.60
2018-10-17T06:24:24.738Z,6.60
2018-10-17T06:26:53.970Z,6.80
2018-10-17T06:29:23.361Z,7.00
2018-10-17T06:31:53.031Z,7.10
2018-10-17T06:34:22.681Z,7.10
2018-10-17T06:36:52.355Z,6.90
2018-10-17T06:39:21.412Z,7.00
2018-10-17T06:41:51.172Z,7.10
2018-10-17T06:44:20.458Z,7.10
2018-10-17T06:46:49.716Z,7.30
2018-10-17T06:49:19.232Z,7.40
2018-10-17T06:51:48.523Z,7.50
2018-10-17T06:54:17.960Z,7.50
2018-10-17T06:56:47.369Z,7.50
2018-10-17T06:59:16.619Z,7.60
2018-10-17T07:01:46.287Z,7.80
2018-10-17T07:04:15.628Z,8.00
2018-10-17T07:06:44.890Z,8.20
2018-10-17T07:09:14.701Z,8.30
2018-10-17T07:11:44.015Z,8.40
2018-10-17T07:14:13.402Z,8.60
2018-10-17T07:16:42.543Z,8.70
2018-10-17T07:19:11.867Z,8.80
2018-10-17T07:21:41.288Z,9.00
2018-10-17T07:24:11.564Z,9.10
2018-10-17T07:26:40.819Z,9.20
2018-10-17T07:29:10.152Z,9.30
2018-10-17T07:31:39.859Z,9.30
2018-10-17T07:34:09.066Z,9.30
2018-10-17T07:36:38.362Z,9.40
2018-10-17T07:39:09.408Z,9.60
2018-10-17T07:41:38.522Z,9.70
2018-10-17T07:44:08.825Z,9.70
2018-10-17T07:46:38.041Z,9.70
2018-10-17T07:49:07.308Z,9.80
2018-10-17T07:51:36.625Z,9.80
2018-10-17T07:54:06.369Z,9.90
2018-10-17T07:56:36.080Z,9.90
2018-10-17T07:59:05.694Z,10.10
2018-10-17T08:01:35.098Z,10.30
2018-10-17T08:04:04.523Z,10.50
2018-10-17T08:06:33.687Z,10.80
2018-10-17T08:09:02.965Z,10.90
2018-10-17T08:11:32.293Z,11.00
2018-10-17T08:14:01.904Z,11.10
2018-10-17T08:16:31.187Z,11.20
2018-10-17T08:19:00.355Z,11.30
2018-10-17T08:21:29.846Z,11.30
2018-10-17T08:23:59.370Z,11.40
2018-10-17T08:26:28.917Z,11.80
2018-10-17T08:28:58.231Z,12.40
2018-10-17T08:31:27.615Z,13.00
2018-10-17T08:33:56.802Z,13.80
2018-10-17T08:36:26.619Z,14.60
2018-10-17T08:38:56.602Z,14.70
2018-10-17T08:41:25.843Z,15.20
2018-10-17T08:43:55.435Z,15.70
2018-10-17T08:46:25.095Z,15.20
2018-10-17T08:48:54.388Z,15.70
2018-10-17T08:51:23.688Z,15.40
2018-10-17T08:53:53.275Z,15.60
2018-10-17T08:56:23.092Z,15.20
2018-10-17T08:58:52.699Z,16.10
2018-10-17T09:01:22.265Z,16.10
2018-10-17T09:03:51.393Z,16.20
2018-10-17T09:06:20.775Z,16.50
2018-10-17T09:08:50.232Z,16.70
2018-10-17T09:11:19.348Z,16.40
2018-10-17T09:13:48.644Z,16.60
2018-10-17T09:16:17.793Z,17.10
2018-10-17T09:18:47.218Z,16.40
2018-10-17T09:21:16.967Z,16.30
2018-10-17T09:23:45.990Z,17.00
2018-10-17T09:26:15.579Z,16.50
2018-10-17T09:28:44.746Z,16.70
2018-10-17T09:31:14.287Z,16.90
2018-10-17T09:33:43.754Z,17.50
2018-10-17T09:36:12.947Z,17.30
2018-10-17T09:38:42.872Z,17.20
2018-10-17T09:41:12.189Z,17.70
2018-10-17T09:43:41.725Z,18.10
2018-10-17T09:46:11.003Z,18.40
2018-10-17T09:48:40.650Z,19.20
2018-10-17T09:51:09.967Z,19.60
2018-10-17T09:53:39.625Z,19.70
2018-10-17T09:56:10.198Z,19.80
2018-10-17T09:58:39.691Z,19.60
2018-10-17T10:01:16.275Z,19.60
2018-10-17T10:03:45.579Z,19.30
2018-10-17T10:06:15.276Z,19.20
2018-10-17T10:08:44.706Z,19.50
2018-10-17T10:11:13.951Z,19.40
2018-10-17T10:13:43.277Z,19.40
2018-10-17T10:16:13.066Z,19.40
2018-10-17T10:18:42.925Z,19.80
2018-10-17T10:21:12.320Z,20.40
2018-10-17T10:23:41.938Z,21.20
2018-10-17T10:26:11.119Z,21.30
2018-10-17T10:28:40.326Z,21.20
2018-10-17T10:31:09.705Z,21.70
2018-10-17T10:33:39.363Z,21.60
2018-10-17T10:36:09.044Z,21.30
2018-10-17T10:38:38.068Z,21.30
2018-10-17T10:41:07.404Z,21.10
2018-10-17T10:43:36.665Z,21.70
2018-10-17T10:46:06.234Z,22.50
2018-10-17T10:48:35.530Z,22.70
2018-10-17T10:51:04.915Z,22.40
2018-10-17T10:53:34.448Z,22.70
2018-10-17T10:56:04.092Z,22.80
2018-10-17T10:58:34.303Z,22.70
2018-10-17T11:01:03.764Z,22.90
2018-10-17T11:03:33.174Z,23.10
2018-10-17T11:06:02.756Z,22.60
2018-10-17T11:08:32.377Z,22.80
2018-10-17T11:11:01.840Z,22.40
2018-10-17T11:13:31.264Z,22.20
2018-10-17T11:16:00.590Z,22.00
2018-10-17T11:18:29.994Z,21.90
2018-10-17T11:20:59.338Z,21.80
2018-10-17T11:23:28.880Z,21.30
2018-10-17T11:25:58.869Z,21.00
2018-10-17T11:28:28.421Z,20.80
2018-10-17T11:30:57.458Z,20.80
2018-10-17T11:33:26.701Z,20.50
2018-10-17T11:35:56.075Z,20.80
2018-10-17T11:38:25.329Z,21.00
2018-10-17T11:40:54.663Z,20.80
2018-10-17T11:43:23.866Z,20.60
2018-10-17T11:45:53.425Z,20.60
2018-10-17T11:48:22.857Z,20.30
2018-10-17T11:50:52.382Z,20.20
2018-10-17T11:53:22.354Z,20.20
2018-10-17T11:55:51.436Z,20.10
2018-10-17T11:58:20.960Z,20.10
2018-10-17T12:00:50.107Z,20.20
2018-10-17T12:03:19.912Z,20.40
2018-10-17T12:05:49.800Z,20.50
2018-10-17T12:08:19.476Z,20.90
2018-10-17T12:10:48.979Z,21.50
2018-10-17T12:13:18.303Z,21.90
2018-10-17T12:15:47.723Z,22.00
2018-10-17T12:18:17.269Z,21.70
2018-10-17T12:20:47.640Z,21.10
2018-10-17T12:23:17.109Z,21.80
2018-10-17T12:25:46.196Z,21.90
2018-10-17T12:28:17.027Z,21.60
2018-10-17T12:30:46.141Z,21.20
2018-10-17T12:33:15.509Z,20.80
2018-10-17T12:35:44.893Z,20.70
2018-10-17T12:38:14.304Z,20.60
2018-10-17T12:40:50.052Z,20.60
2018-10-17T12:43:19.329Z,20.40
2018-10-17T12:45:48.570Z,20.20
2018-10-17T12:48:17.990Z,20.10
2018-10-17T12:50:47.385Z,20.10
2018-10-17T12:53:16.661Z,20.00
2018-10-17T12:55:46.714Z,19.90
2018-10-17T12:58:16.549Z,20.00
2018-10-17T13:00:46.082Z,19.90
2018-10-17T13:03:15.390Z,19.80
2018-10-17T13:05:44.610Z,19.80
2018-10-17T13:08:13.949Z,19.80
2018-10-17T13:10:43.553Z,19.90
2018-10-17T13:13:13.389Z,20.20
2018-10-17T13:15:43.065Z,20.20
2018-10-17T13:18:12.728Z,20.20
2018-10-17T13:20:42.474Z,20.00
2018-10-17T13:23:12.184Z,19.90
2018-10-17T13:25:41.636Z,19.70
2018-10-17T13:28:13.257Z,19.60
2018-10-17T13:30:43.092Z,19.70
2018-10-17T13:33:13.576Z,19.50
2018-10-17T13:35:43.048Z,19.50
2018-10-17T13:38:12.537Z,19.60
2018-10-17T13:40:42.319Z,19.70
2018-10-17T13:43:13.188Z,19.80
2018-10-17T13:45:42.885Z,19.90
2018-10-17T13:48:19.732Z,19.80
2018-10-17T13:50:53.541Z,19.70
2018-10-17T13:53:23.084Z,19.50
2018-10-17T13:55:52.525Z,19.30
2018-10-17T13:58:22.933Z,19.20
2018-10-17T14:00:53.198Z,19.20
2018-10-17T14:03:23.270Z,19.10
2018-10-17T14:06:04.111Z,18.90
2018-10-17T14:08:35.868Z,18.90
2018-10-17T14:11:05.807Z,18.80
2018-10-17T14:13:35.129Z,18.70
2018-10-17T14:16:04.561Z,18.70
2018-10-17T14:18:34.236Z,18.70
2018-10-17T14:21:04.400Z,18.60
2018-10-17T14:23:34.210Z,18.60
2018-10-17T14:26:03.467Z,18.60
2018-10-17T14:28:32.966Z,18.50
2018-10-17T14:31:02.203Z,18.40
2018-10-17T14:33:31.565Z,18.30
2018-10-17T14:36:01.057Z,18.20
2018-10-17T14:38:30.315Z,18.20
2018-10-17T14:40:59.691Z,18.10
2018-10-17T14:43:28.864Z,18.10
2018-10-17T14:45:58.078Z,18.10
2018-10-17T14:48:27.320Z,18.00
2018-10-17T14:50:56.926Z,18.00
2018-10-17T14:53:26.649Z,17.90
2018-10-17T14:55:55.922Z,17.90
2018-10-17T14:58:25.282Z,17.90
2018-10-17T15:00:54.691Z,17.80
2018-10-17T15:03:24.099Z,17.60
2018-10-17T15:05:53.569Z,17.60
2018-10-17T15:08:22.875Z,17.50
2018-10-17T15:10:52.352Z,17.40
2018-10-17T15:13:21.740Z,17.20
2018-10-17T15:15:51.158Z,16.90
2018-10-17T15:18:21.215Z,16.70
2018-10-17T15:20:50.505Z,16.80
2018-10-17T15:23:19.718Z,16.70
2018-10-17T15:25:49.259Z,16.70
2018-10-17T15:28:18.878Z,16.50
2018-10-17T15:30:48.297Z,16.30
2018-10-17T15:33:17.832Z,16.30
2018-10-17T15:35:46.994Z,16.20
2018-10-17T15:38:16.695Z,16.00
2018-10-17T15:40:46.583Z,15.90
2018-10-17T15:43:16.018Z,15.90
2018-10-17T15:45:45.773Z,15.70
2018-10-17T15:48:15.024Z,15.60
2018-10-17T15:50:44.332Z,15.60
2018-10-17T15:53:13.609Z,15.60
2018-10-17T15:55:43.606Z,15.50
2018-10-17T15:58:12.784Z,15.50
2018-10-17T16:00:42.244Z,15.30
2018-10-17T16:03:11.349Z,15.20
2018-10-17T16:05:41.669Z,15.20
2018-10-17T16:08:11.064Z,15.00
2018-10-17T16:10:41.309Z,14.90
2018-10-17T16:13:10.621Z,15.00
2018-10-17T16:15:40.873Z,14.90
2018-10-17T16:18:11.863Z,14.80
2018-10-17T16:20:41.425Z,14.60
2018-10-17T16:23:10.865Z,14.60
2018-10-17T16:25:40.348Z,14.60
2018-10-17T16:28:09.868Z,14.60
2018-10-17T16:30:39.361Z,14.60
2018-10-17T16:33:08.496Z,14.50
2018-10-17T16:35:38.143Z,14.40
2018-10-17T16:38:07.439Z,14.30
2018-10-17T16:40:36.522Z,14.10
2018-10-17T16:43:05.996Z,14.20
2018-10-17T16:45:35.300Z,14.20
2018-10-17T16:48:05.069Z,14.00
2018-10-17T16:50:34.654Z,14.10
2018-10-17T16:53:03.845Z,14.00
2018-10-17T16:55:33.500Z,14.00
2018-10-17T16:58:03.080Z,14.00
2018-10-17T17:00:32.722Z,14.00
2018-10-17T17:03:02.065Z,14.00
2018-10-17T17:05:31.670Z,13.90
2018-10-17T17:08:00.983Z,13.80
2018-10-17T17:10:30.865Z,13.80
2018-10-17T17:13:00.368Z,13.70
2018-10-17T17:15:29.523Z,13.80
2018-10-17T17:17:58.827Z,13.60
2018-10-17T17:20:28.226Z,13.60
2018-10-17T17:22:57.508Z,13.60
2018-10-17T17:25:27.054Z,13.50
2018-10-17T17:27:56.308Z,13.40
2018-10-17T17:30:26.479Z,13.20
2018-10-17T17:32:55.933Z,13.10
2018-10-17T17:35:26.049Z,13.20
2018-10-17T17:37:55.454Z,13.10
2018-10-17T17:40:25.162Z,13.00
2018-10-17T17:42:54.646Z,13.00
2018-10-17T17:45:24.236Z,12.90
2018-10-17T17:47:53.681Z,13.00
2018-10-17T17:50:23.440Z,12.90
2018-10-17T17:52:53.123Z,12.90
2018-10-17T17:55:22.904Z,12.90
2018-10-17T17:57:52.745Z,12.80
2018-10-17T18:00:22.309Z,12.80
2018-10-17T18:02:51.859Z,12.70
2018-10-17T18:05:21.188Z,12.70
2018-10-17T18:07:50.599Z,12.60
2018-10-17T18:10:20.144Z,12.60
2018-10-17T18:12:49.528Z,12.50
2018-10-17T18:15:18.984Z,12.30
2018-10-17T18:17:48.403Z,12.40
2018-10-17T18:20:18.010Z,12.40
2018-10-17T18:22:47.464Z,12.30
2018-10-17T18:25:17.101Z,12.10
2018-10-17T18:27:46.888Z,12.10
2018-10-17T18:30:16.737Z,12.10
2018-10-17T18:32:53.085Z,12.00
2018-10-17T18:35:22.445Z,12.00
2018-10-17T18:37:51.983Z,11.90
2018-10-17T18:40:21.484Z,11.90
2018-10-17T18:42:50.888Z,11.80
2018-10-17T18:45:20.356Z,11.90
2018-10-17T18:47:49.747Z,11.80
2018-10-17T18:50:19.181Z,11.80
2018-10-17T18:52:48.634Z,11.60
2018-10-17T18:55:18.077Z,11.50
2018-10-17T18:57:47.262Z,11.60
2018-10-17T19:00:16.374Z,11.70
2018-10-17T19:02:45.625Z,11.70
2018-10-17T19:05:14.695Z,11.70
2018-10-17T19:07:44.315Z,11.60
2018-10-17T19:10:14.906Z,11.70
2018-10-17T19:12:44.707Z,11.60
2018-10-17T19:15:14.766Z,11.60
2018-10-17T19:17:44.094Z,11.60
2018-10-17T19:20:13.387Z,11.50
2018-10-17T19:22:42.738Z,11.40
2018-10-17T19:25:13.601Z,11.50
2018-10-17T19:27:44.089Z,11.40
2018-10-17T19:30:14.904Z,11.40
2018-10-17T19:32:45.018Z,11.40
2018-10-17T19:35:15.157Z,11.30
2018-10-17T19:37:44.834Z,11.30
2018-10-17T19:40:14.503Z,11.20
2018-10-17T19:42:44.498Z,11.10
2018-10-17T19:45:14.243Z,11.20
2018-10-17T19:47:43.677Z,11.20
2018-10-17T19:50:12.833Z,11.20
2018-10-17T19:52:42.576Z,11.10
2018-10-17T19:55:12.041Z,11.10
2018-10-17T19:57:41.686Z,11.00
2018-10-17T20:00:12.685Z,11.00
2018-10-17T20:02:42.478Z,11.00
2018-10-17T20:05:12.382Z,11.00
2018-10-17T20:07:41.738Z,11.00
2018-10-17T20:10:11.416Z,11.00
2018-10-17T20:12:40.442Z,10.80
2018-10-17T20:15:09.921Z,10.80
2018-10-17T20:17:39.365Z,10.70
2018-10-17T20:20:08.658Z,10.80
2018-10-17T20:22:37.961Z,10.80
2018-10-17T20:25:07.392Z,10.70
2018-10-17T20:27:36.727Z,10.70
2018-10-17T20:30:06.715Z,10.70
2018-10-17T20:32:35.952Z,10.60
2018-10-17T20:35:05.677Z,10.40
2018-10-17T20:37:35.484Z,10.30
2018-10-17T20:40:04.724Z,10.40
2018-10-17T20:42:34.279Z,10.50
2018-10-17T20:45:03.539Z,10.40
2018-10-17T20:47:32.885Z,10.40
2018-10-17T20:50:02.337Z,10.30
2018-10-17T20:52:31.768Z,10.20
2018-10-17T20:55:00.804Z,10.30
2018-10-17T20:57:30.030Z,10.30
2018-10-17T20:59:59.357Z,10.30
2018-10-17T21:02:28.944Z,10.10
2018-10-17T21:04:59.192Z,10.10
2018-10-17T21:07:28.609Z,10.10
2018-10-17T21:09:57.932Z,10.00
2018-10-17T21:12:27.349Z,9.90
2018-10-17T21:14:57.345Z,9.90
2018-10-17T21:17:26.683Z,9.80
2018-10-17T21:19:56.033Z,9.70
2018-10-17T21:22:25.373Z,9.70
2018-10-17T21:24:54.730Z,9.80
2018-10-17T21:27:24.057Z,9.90
2018-10-17T21:29:53.244Z,9.90
2018-10-17T21:32:22.620Z,9.90
2018-10-17T21:34:51.673Z,9.80
2018-10-17T21:37:20.989Z,9.80
2018-10-17T21:39:50.502Z,9.90
2018-10-17T21:42:19.771Z,9.80
2018-10-17T21:44:49.066Z,9.70
2018-10-17T21:47:18.545Z,9.70
2018-10-17T21:49:47.791Z,9.60
2018-10-17T21:52:17.873Z,9.60
2018-10-17T21:54:47.456Z,9.60
2018-10-17T21:57:17.041Z,9.40
2018-10-17T21:59:46.352Z,9.30
2018-10-17T22:02:15.885Z,9.30
2018-10-17T22:04:45.498Z,9.30
2018-10-17T22:07:14.920Z,9.30
2018-10-17T22:09:44.645Z,9.30
2018-10-17T22:12:14.049Z,9.30
2018-10-17T22:14:43.368Z,9.20
2018-10-17T22:17:12.791Z,9.10
2018-10-17T22:19:42.702Z,8.90
2018-10-17T22:22:12.032Z,8.90
2018-10-17T22:24:41.475Z,8.90
2018-10-17T22:27:10.584Z,9.00
2018-10-17T22:29:39.782Z,9.10
2018-10-17T22:32:08.925Z,9.10
2018-10-17T22:34:38.418Z,9.10
2018-10-17T22:37:08.020Z,9.10
2018-10-17T22:39:37.486Z,9.20
2018-10-17T22:42:06.910Z,9.20
2018-10-17T22:44:36.360Z,9.20
2018-10-17T22:47:05.826Z,9.00
2018-10-17T22:49:35.035Z,9.00
2018-10-17T22:52:04.093Z,9.10
2018-10-17T22:54:33.576Z,9.20
2018-10-17T22:57:02.936Z,9.20
2018-10-17T22:59:32.299Z,9.20
2018-10-17T23:02:01.858Z,9.00
2018-10-17T23:04:31.123Z,9.00
2018-10-17T23:07:00.361Z,9.10
2018-10-17T23:09:29.730Z,9.20
2018-10-17T23:11:59.488Z,9.20
2018-10-17T23:14:29.011Z,9.20
2018-10-17T23:16:58.464Z,9.10
2018-10-17T23:19:27.949Z,9.10
2018-10-17T23:21:57.379Z,9.10
2018-10-17T23:24:26.597Z,9.10
2018-10-17T23:26:56.164Z,9.10
2018-10-17T23:29:25.558Z,9.10
2018-10-17T23:31:55.183Z,9.00
2018-10-17T23:34:24.714Z,8.90
2018-10-17T23:36:54.043Z,8.90
2018-10-17T23:39:23.251Z,9.00
2018-10-17T23:41:52.925Z,8.90
2018-10-17T23:44:22.367Z,8.90
2018-10-17T23:46:51.948Z,9.00
2018-10-17T23:49:21.208Z,9.00
2018-10-17T23:51:50.686Z,9.00
2018-10-17T23:54:19.934Z,9.00
2018-10-17T23:56:49.226Z,9.00
2018-10-17T23:59:18.602Z,9.00
